createdAt,value
2022-08-04T00:02:09.946Z,27.41
2022-08-04T00:05:00.428Z,27.39
2022-08-04T00:07:44.008Z,27.38
2022-08-04T00:10:16.295Z,27.28
2022-08-04T00:12:47.726Z,27.25
2022-08-04T00:15:16.652Z,27.31
2022-08-04T00:17:55.111Z,27.31
2022-08-04T00:20:21.957Z,27.27
2022-08-04T00:22:49.378Z,27.29
2022-08-04T00:25:16.483Z,27.28
2022-08-04T00:27:43.836Z,27.31
2022-08-04T00:30:10.971Z,27.33
2022-08-04T00:32:40.965Z,27.31
2022-08-04T00:35:10.365Z,27.35
2022-08-04T00:37:40.747Z,27.34
2022-08-04T00:40:22.565Z,27.31
2022-08-04T00:43:08.313Z,27.37
2022-08-04T00:46:15.325Z,27.37
2022-08-04T00:49:13.631Z,27.28
2022-08-04T00:51:40.229Z,27.13
2022-08-04T00:54:36.255Z,27.11
2022-08-04T00:57:29.840Z,27.15
2022-08-04T01:00:07.961Z,27.03
2022-08-04T01:02:53.565Z,27.09
2022-08-04T01:05:38.877Z,27.01
2022-08-04T01:08:39.798Z,27.03
2022-08-04T01:11:25.052Z,27.04
2022-08-04T01:14:10.142Z,27.01
2022-08-04T01:16:49.867Z,27.08
2022-08-04T01:19:38.236Z,27.17
2022-08-04T01:22:22.657Z,27.21
2022-08-04T01:25:21.376Z,27.20
2022-08-04T01:27:56.719Z,27.00
2022-08-04T01:30:27.427Z,26.99
2022-08-04T01:33:02.695Z,27.09
2022-08-04T01:35:46.510Z,27.12
2022-08-04T01:38:34.884Z,26.84
2022-08-04T01:41:07.050Z,26.40
2022-08-04T01:43:36.029Z,26.25
2022-08-04T01:46:05.084Z,26.15
2022-08-04T01:48:33.206Z,26.21
2022-08-04T01:51:08.385Z,26.54
2022-08-04T01:53:37.729Z,26.68
2022-08-04T01:56:06.301Z,26.45
2022-08-04T01:58:35.719Z,26.56
2022-08-04T02:01:11.572Z,26.68
2022-08-04T02:04:21.128Z,26.72
2022-08-04T02:06:40.489Z,26.71
2022-08-04T02:09:12.583Z,26.78
2022-08-04T02:11:42.532Z,26.76
2022-08-04T02:14:39.394Z,26.83
2022-08-04T02:17:25.479Z,26.83
2022-08-04T02:20:00.969Z,26.70
2022-08-04T02:22:31.415Z,26.41
2022-08-04T02:25:05.462Z,26.40
2022-08-04T02:27:59.670Z,26.09
2022-08-04T02:31:12.102Z,25.88
2022-08-04T02:33:43.050Z,25.94
2022-08-04T02:36:21.023Z,25.97
2022-08-04T02:38:55.846Z,25.77
2022-08-04T02:41:24.803Z,25.77
2022-08-04T02:43:55.096Z,25.77
2022-08-04T02:46:22.478Z,25.70
2022-08-04T02:48:51.817Z,25.71
2022-08-04T02:51:27.415Z,25.85
2022-08-04T02:53:57.294Z,25.58
2022-08-04T02:56:25.558Z,25.51
2022-08-04T02:58:58.993Z,25.39
2022-08-04T03:01:26.790Z,25.19
2022-08-04T03:04:24.708Z,25.21
2022-08-04T03:07:07.362Z,25.04
2022-08-04T03:10:08.818Z,25.11
2022-08-04T03:12:58.950Z,25.09
2022-08-04T03:16:03.609Z,24.97
2022-08-04T03:19:14.628Z,24.77
2022-08-04T03:22:12.371Z,24.53
2022-08-04T03:25:00.583Z,24.81
2022-08-04T03:27:50.234Z,24.86
2022-08-04T03:30:28.497Z,24.81
2022-08-04T03:33:15.362Z,24.83
2022-08-04T03:36:09.902Z,25.01
2022-08-04T03:38:57.179Z,25.13
2022-08-04T03:42:03.254Z,24.87
2022-08-04T03:44:51.760Z,24.44
2022-08-04T03:47:33.427Z,24.16
2022-08-04T03:50:22.129Z,24.20
2022-08-04T03:53:20.114Z,24.43
2022-08-04T03:55:55.421Z,24.60
2022-08-04T03:58:30.542Z,24.76
2022-08-04T04:01:06.833Z,24.77
2022-08-04T04:04:03.484Z,24.57
2022-08-04T04:07:07.479Z,24.64
2022-08-04T04:09:57.818Z,24.28
2022-08-04T04:12:39.636Z,24.34
2022-08-04T04:15:19.573Z,24.24
2022-08-04T04:18:04.717Z,24.35
2022-08-04T04:20:48.876Z,24.58
2022-08-04T04:23:30.935Z,24.54
2022-08-04T04:26:35.020Z,24.57
2022-08-04T04:29:35.188Z,24.66
2022-08-04T04:32:21.530Z,24.41
2022-08-04T04:35:20.786Z,24.52
2022-08-04T04:37:56.873Z,24.31
2022-08-04T04:40:34.973Z,24.22
2022-08-04T04:43:14.612Z,23.74
2022-08-04T04:45:55.026Z,23.99
2022-08-04T04:48:45.689Z,23.96
2022-08-04T04:51:51.913Z,23.92
2022-08-04T04:54:32.400Z,24.02
2022-08-04T04:57:11.723Z,24.08
2022-08-04T04:59:45.718Z,24.15
2022-08-04T05:02:33.326Z,24.39
2022-08-04T05:05:06.006Z,24.51
2022-08-04T05:07:53.024Z,24.52
2022-08-04T05:10:39.581Z,24.63
2022-08-04T05:14:37.545Z,24.67
2022-08-04T05:16:21.712Z,24.66
2022-08-04T05:19:09.256Z,24.66
2022-08-04T05:21:47.285Z,24.70
2022-08-04T05:24:19.373Z,24.70
2022-08-04T05:26:50.291Z,24.94
2022-08-04T05:29:37.916Z,24.79
2022-08-04T05:32:13.206Z,24.95
2022-08-04T05:34:49.017Z,25.17
2022-08-04T05:37:18.839Z,25.18
2022-08-04T05:39:50.060Z,25.09
2022-08-04T05:42:16.748Z,25.04
2022-08-04T05:44:50.490Z,24.98
2022-08-04T05:47:18.438Z,24.96
2022-08-04T05:49:45.704Z,24.93
2022-08-04T05:52:29.084Z,24.99
2022-08-04T05:54:58.470Z,25.00
2022-08-04T05:57:26.051Z,25.02
2022-08-04T05:59:55.215Z,25.17
2022-08-04T06:02:24.370Z,25.27
2022-08-04T06:04:53.551Z,25.18
2022-08-04T06:07:20.665Z,25.23
2022-08-04T06:09:47.544Z,25.19
2022-08-04T06:12:37.992Z,25.27
2022-08-04T06:15:06.436Z,25.28
2022-08-04T06:19:57.588Z,25.37
2022-08-04T06:20:32.846Z,25.38
2022-08-04T06:23:04.629Z,25.47
2022-08-04T06:25:44.607Z,25.52
2022-08-04T06:28:11.835Z,25.62
2022-08-04T06:30:40.379Z,25.54
2022-08-04T06:33:24.777Z,25.44
2022-08-04T06:35:55.229Z,25.47
2022-08-04T06:38:24.352Z,25.59
2022-08-04T06:40:51.624Z,25.60
2022-08-04T06:43:19.260Z,25.62
2022-08-04T06:45:47.261Z,25.66
2022-08-04T06:48:16.982Z,25.69
2022-08-04T06:51:27.745Z,25.54
2022-08-04T06:53:34.316Z,25.72
2022-08-04T06:56:01.872Z,25.84
2022-08-04T06:58:32.319Z,26.02
2022-08-04T07:01:02.031Z,26.04
2022-08-04T07:03:30.877Z,26.01
2022-08-04T07:05:57.935Z,26.03
2022-08-04T07:08:24.991Z,26.14
2022-08-04T07:10:53.323Z,26.18
2022-08-04T07:13:20.989Z,26.32
2022-08-04T07:15:48.787Z,26.33
2022-08-04T07:18:16.255Z,26.36
2022-08-04T07:20:44.915Z,26.50
2022-08-04T07:23:17.271Z,26.51
2022-08-04T07:26:00.915Z,26.61
2022-08-04T07:28:31.595Z,26.67
2022-08-04T07:30:58.614Z,26.75
2022-08-04T07:33:27.485Z,26.86
2022-08-04T07:36:04.449Z,26.97
2022-08-04T07:38:37.545Z,27.11
2022-08-04T07:44:03.686Z,27.00
2022-08-04T07:46:31.173Z,27.18
2022-08-04T07:49:00.576Z,27.39
2022-08-04T07:51:28.656Z,27.57
2022-08-04T07:53:57.448Z,27.64
2022-08-04T07:56:28.662Z,27.68
2022-08-04T07:58:56.313Z,27.78
2022-08-04T08:01:24.522Z,27.89
2022-08-04T08:03:53.739Z,27.84
2022-08-04T08:06:32.278Z,28.00
2022-08-04T08:09:12.203Z,28.10
2022-08-04T08:12:37.269Z,28.07
2022-08-04T08:14:28.229Z,28.16
2022-08-04T08:16:54.940Z,28.22
2022-08-04T08:19:21.816Z,28.39
2022-08-04T08:21:58.477Z,28.42
2022-08-04T08:24:31.193Z,28.50
2022-08-04T08:27:00.300Z,28.35
2022-08-04T08:29:29.399Z,28.35
2022-08-04T08:32:01.350Z,28.38
2022-08-04T08:34:31.142Z,28.47
2022-08-04T08:37:14.085Z,28.73
2022-08-04T08:39:56.032Z,28.96
2022-08-04T08:42:41.540Z,28.77
2022-08-04T08:45:11.173Z,28.57
2022-08-04T08:48:00.064Z,28.67
2022-08-04T08:50:59.841Z,28.93
2022-08-04T08:53:44.779Z,29.15
2022-08-04T08:56:14.394Z,29.25
2022-08-04T08:59:01.897Z,29.23
2022-08-04T09:01:34.589Z,29.29
2022-08-04T09:04:32.007Z,29.31
2022-08-04T09:07:14.349Z,29.39
2022-08-04T09:10:02.162Z,29.33
2022-08-04T09:12:51.885Z,29.50
2022-08-04T09:15:33.315Z,29.47
2022-08-04T09:18:11.077Z,29.59
2022-08-04T09:20:43.722Z,29.69
2022-08-04T09:23:19.634Z,29.86
2022-08-04T09:26:05.908Z,30.01
2022-08-04T09:28:53.929Z,30.23
2022-08-04T09:31:28.102Z,30.34
2022-08-04T09:34:22.331Z,30.41
2022-08-04T09:37:17.112Z,30.48
2022-08-04T09:40:04.843Z,30.54
2022-08-04T09:42:50.157Z,30.81
2022-08-04T09:45:42.714Z,30.67
2022-08-04T09:48:48.240Z,30.65
2022-08-04T09:51:57.459Z,30.45
2022-08-04T09:54:29.907Z,30.31
2022-08-04T09:57:38.929Z,30.43
2022-08-04T10:00:10.209Z,30.44
2022-08-04T10:02:44.274Z,30.22
2022-08-04T10:05:23.438Z,30.36
2022-08-04T10:08:22.967Z,30.43
2022-08-04T10:11:12.311Z,30.39
2022-08-04T10:14:11.491Z,30.47
2022-08-04T10:17:02.903Z,30.50
2022-08-04T10:19:34.906Z,30.46
2022-08-04T10:22:28.931Z,30.46
2022-08-04T10:25:03.545Z,30.39
2022-08-04T10:27:38.488Z,30.54
2022-08-04T10:30:13.886Z,30.65
2022-08-04T10:33:04.019Z,30.83
2022-08-04T10:35:39.985Z,31.06
2022-08-04T10:38:09.687Z,30.96
2022-08-04T10:40:45.321Z,31.00
2022-08-04T10:43:46.258Z,31.00
2022-08-04T10:46:17.696Z,31.08
2022-08-04T10:49:07.407Z,31.35
2022-08-04T10:51:58.320Z,31.33
2022-08-04T10:54:43.818Z,31.60
2022-08-04T10:57:21.363Z,31.67
2022-08-04T11:00:14.651Z,31.71
2022-08-04T11:02:59.869Z,31.81
2022-08-04T11:05:44.179Z,31.60
2022-08-04T11:08:22.158Z,31.40
2022-08-04T11:11:01.618Z,31.39
2022-08-04T11:14:08.930Z,31.38
2022-08-04T11:16:54.750Z,31.38
2022-08-04T11:19:52.806Z,31.35
2022-08-04T11:22:25.538Z,31.28
2022-08-04T11:25:22.282Z,31.53
2022-08-04T11:28:30.608Z,31.63
2022-08-04T11:31:06.163Z,31.62
2022-08-04T11:34:04.471Z,31.61
2022-08-04T11:37:14.019Z,31.49
2022-08-04T11:39:59.267Z,31.30
2022-08-04T11:42:27.991Z,31.19
2022-08-04T11:45:04.774Z,31.20
2022-08-04T11:47:47.598Z,31.23
2022-08-04T11:50:29.970Z,31.33
2022-08-04T11:52:58.210Z,31.58
2022-08-04T11:55:28.111Z,31.56
2022-08-04T11:57:55.403Z,31.63
2022-08-04T12:00:24.605Z,31.51
2022-08-04T12:03:19.096Z,31.33
2022-08-04T12:06:04.260Z,31.29
2022-08-04T12:08:40.765Z,31.12
2022-08-04T12:11:32.594Z,30.88
2022-08-04T12:14:25.934Z,30.87
2022-08-04T12:17:00.832Z,30.83
2022-08-04T12:20:03.208Z,30.72
2022-08-04T12:22:37.045Z,30.69
2022-08-04T12:25:09.900Z,30.67
2022-08-04T12:27:41.909Z,30.55
2022-08-04T12:31:00.484Z,30.50
2022-08-04T12:33:05.542Z,30.36
2022-08-04T12:35:58.042Z,30.24
2022-08-04T12:38:48.484Z,30.19
2022-08-04T12:41:28.120Z,30.10
2022-08-04T12:43:55.613Z,30.02
2022-08-04T12:46:24.926Z,29.84
2022-08-04T12:48:52.416Z,29.62
2022-08-04T12:52:06.995Z,29.57
2022-08-04T12:54:10.342Z,29.47
2022-08-04T12:56:38.927Z,29.48
2022-08-04T12:59:12.785Z,29.59
2022-08-04T13:02:08.487Z,29.69
2022-08-04T13:04:34.769Z,29.83
2022-08-04T13:07:11.995Z,29.86
2022-08-04T13:09:39.122Z,29.74
2022-08-04T13:12:12.821Z,29.72
2022-08-04T13:14:44.322Z,29.60
2022-08-04T13:17:12.289Z,29.65
2022-08-04T13:19:41.462Z,29.54
2022-08-04T13:22:09.121Z,29.63
2022-08-04T13:24:56.889Z,29.70
2022-08-04T13:27:26.946Z,29.66
2022-08-04T13:30:00.785Z,29.66
2022-08-04T13:32:32.230Z,29.75
2022-08-04T13:35:01.816Z,29.87
2022-08-04T13:37:36.536Z,29.98
2022-08-04T13:40:07.043Z,30.02
2022-08-04T13:42:36.007Z,30.08
2022-08-04T13:45:06.366Z,30.18
2022-08-04T13:47:37.148Z,30.29
2022-08-04T13:50:12.090Z,30.40
2022-08-04T13:52:39.868Z,30.32
2022-08-04T13:55:07.257Z,30.31
2022-08-04T13:57:45.625Z,30.46
2022-08-04T14:00:13.451Z,30.49
2022-08-04T14:02:50.257Z,30.45
2022-08-04T14:05:27.093Z,30.42
2022-08-04T14:08:04.605Z,30.39
2022-08-04T14:10:32.214Z,30.45
2022-08-04T14:12:59.393Z,30.58
2022-08-04T14:16:03.824Z,30.64
2022-08-04T14:18:28.529Z,30.54
2022-08-04T14:21:16.464Z,30.62
2022-08-04T14:23:50.770Z,30.66
2022-08-04T14:26:32.969Z,30.69
2022-08-04T14:29:28.127Z,30.69
2022-08-04T14:32:12.708Z,30.81
2022-08-04T14:34:45.179Z,30.87
2022-08-04T14:37:20.299Z,30.84
2022-08-04T14:40:07.906Z,30.65
2022-08-04T14:42:54.800Z,30.73
2022-08-04T14:45:33.290Z,30.56
2022-08-04T14:48:01.316Z,30.40
2022-08-04T14:50:39.458Z,30.38
2022-08-04T14:53:26.168Z,30.42
2022-08-04T14:55:55.226Z,30.48
2022-08-04T14:58:34.398Z,30.37
2022-08-04T15:01:10.448Z,30.30
2022-08-04T15:03:50.964Z,30.23
2022-08-04T15:06:26.176Z,30.26
2022-08-04T15:08:55.570Z,30.26
2022-08-04T15:11:24.279Z,30.11
2022-08-04T15:13:56.468Z,30.12
2022-08-04T15:16:24.824Z,30.03
2022-08-04T15:18:54.617Z,29.87
2022-08-04T15:21:28.152Z,29.92
2022-08-04T15:23:56.902Z,29.96
2022-08-04T15:26:39.636Z,30.03
2022-08-04T15:29:16.668Z,30.12
2022-08-04T15:32:06.198Z,30.11
2022-08-04T15:35:06.781Z,29.83
2022-08-04T15:37:36.309Z,29.69
2022-08-04T15:40:14.087Z,29.77
2022-08-04T15:43:08.823Z,29.71
2022-08-04T15:46:43.117Z,29.58
2022-08-04T15:48:52.050Z,29.57
2022-08-04T15:51:31.882Z,29.59
2022-08-04T15:54:02.700Z,29.39
2022-08-04T15:56:30.927Z,29.23
2022-08-04T15:58:57.808Z,29.22
2022-08-04T16:01:24.966Z,29.28
2022-08-04T16:03:59.803Z,29.30
2022-08-04T16:06:29.488Z,29.46
2022-08-04T16:09:05.296Z,29.49
2022-08-04T16:11:40.359Z,29.44
2022-08-04T16:14:10.932Z,29.30
2022-08-04T16:16:40.985Z,29.26
2022-08-04T16:19:19.612Z,29.11
2022-08-04T16:21:52.240Z,28.93
2022-08-04T16:24:21.840Z,28.83
2022-08-04T16:26:57.337Z,28.85
2022-08-04T16:29:24.968Z,28.80
2022-08-04T16:32:16.096Z,29.05
2022-08-04T16:34:55.151Z,29.12
2022-08-04T16:37:29.041Z,29.12
2022-08-04T16:40:33.662Z,29.16
2022-08-04T16:43:06.328Z,29.29
2022-08-04T16:45:41.014Z,29.22
2022-08-04T16:48:09.299Z,29.24
2022-08-04T16:51:04.773Z,29.28
2022-08-04T16:54:03.287Z,29.19
2022-08-04T16:56:33.722Z,29.36
2022-08-04T16:59:13.003Z,29.26
2022-08-04T17:01:48.929Z,29.26
2022-08-04T17:04:16.485Z,29.42
2022-08-04T17:06:46.229Z,29.55
2022-08-04T17:09:15.552Z,29.84
2022-08-04T17:11:43.847Z,29.51
2022-08-04T17:14:11.390Z,29.57
2022-08-04T17:16:40.860Z,29.76
2022-08-04T17:19:24.127Z,29.79
2022-08-04T17:22:02.169Z,29.93
2022-08-04T17:24:30.069Z,29.90
2022-08-04T17:26:58.060Z,29.73
2022-08-04T17:29:43.015Z,29.31
2022-08-04T17:32:14.857Z,29.21
2022-08-04T17:34:41.721Z,29.09
2022-08-04T17:37:38.018Z,29.07
2022-08-04T17:40:13.362Z,28.96
2022-08-04T17:42:41.345Z,28.97
2022-08-04T17:48:02.843Z,28.92
2022-08-04T17:50:34.804Z,29.05
2022-08-04T17:53:11.765Z,29.13
2022-08-04T17:55:39.610Z,28.71
2022-08-04T17:58:22.357Z,28.83
2022-08-04T18:01:22.633Z,29.04
2022-08-04T18:03:53.039Z,28.84
2022-08-04T18:06:22.759Z,28.63
2022-08-04T18:11:55.565Z,28.59
2022-08-04T18:14:28.943Z,28.39
2022-08-04T18:16:56.388Z,28.42
2022-08-04T18:19:23.629Z,28.53
2022-08-04T18:22:00.070Z,28.37
2022-08-04T18:24:35.113Z,28.41
2022-08-04T18:27:06.565Z,28.39
2022-08-04T18:32:23.916Z,28.44
2022-08-04T18:35:05.178Z,28.57
2022-08-04T18:38:05.800Z,28.61
2022-08-04T18:40:27.371Z,28.54
2022-08-04T18:43:00.176Z,28.56
2022-08-04T18:45:33.924Z,28.59
2022-08-04T18:48:03.983Z,28.57
2022-08-04T18:50:40.215Z,28.55
2022-08-04T18:53:17.774Z,28.63
2022-08-04T18:55:55.859Z,28.56
2022-08-04T19:01:13.861Z,28.44
2022-08-04T19:03:44.180Z,28.44
2022-08-04T19:06:13.771Z,28.44
2022-08-04T19:08:45.215Z,28.42
2022-08-04T19:14:04.463Z,28.33
2022-08-04T19:16:32.784Z,28.12
2022-08-04T19:19:05.926Z,28.05
2022-08-04T19:22:00.350Z,27.98
2022-08-04T19:24:31.869Z,27.92
2022-08-04T19:27:07.454Z,27.87
2022-08-04T19:29:40.598Z,27.83
2022-08-04T19:32:14.687Z,27.93
2022-08-04T19:34:47.330Z,27.97
2022-08-04T19:37:20.749Z,27.71
2022-08-04T19:40:04.902Z,27.55
2022-08-04T19:42:31.756Z,27.51
2022-08-04T19:44:58.552Z,27.48
2022-08-04T19:48:16.829Z,27.64
2022-08-04T19:50:13.657Z,27.77
2022-08-04T19:52:51.362Z,27.79
2022-08-04T19:55:22.964Z,27.79
2022-08-04T19:58:08.917Z,27.70
2022-08-04T20:00:37.409Z,27.53
2022-08-04T20:03:09.893Z,27.53
2022-08-04T20:05:53.690Z,27.38
2022-08-04T20:08:24.235Z,27.41
2022-08-04T20:10:52.340Z,27.44
2022-08-04T20:13:20.257Z,27.42
2022-08-04T20:15:57.662Z,27.32
2022-08-04T20:18:36.625Z,27.34
2022-08-04T20:21:24.048Z,27.29
2022-08-04T20:24:36.433Z,27.28
2022-08-04T20:26:48.740Z,27.26
2022-08-04T20:29:39.107Z,27.29
2022-08-04T20:32:05.498Z,27.21
2022-08-04T20:34:35.747Z,27.13
2022-08-04T20:37:03.198Z,27.24
2022-08-04T20:39:31.002Z,27.31
2022-08-04T20:41:58.074Z,27.39
2022-08-04T20:44:25.562Z,27.11
2022-08-04T20:46:52.267Z,27.05
2022-08-04T20:49:18.905Z,27.00
2022-08-04T20:51:46.182Z,26.87
2022-08-04T20:54:22.993Z,26.76
2022-08-04T20:56:53.434Z,26.66
2022-08-04T20:59:20.787Z,26.60
2022-08-04T21:01:53.571Z,26.65
2022-08-04T21:04:35.738Z,26.70
2022-08-04T21:07:06.319Z,26.65
2022-08-04T21:09:38.576Z,26.44
2022-08-04T21:12:27.712Z,26.60
2022-08-04T21:14:57.894Z,26.24
2022-08-04T21:17:57.661Z,26.06
2022-08-04T21:20:13.882Z,26.32
2022-08-04T21:22:40.801Z,26.13
2022-08-04T21:25:16.332Z,26.02
2022-08-04T21:27:44.285Z,26.03
2022-08-04T21:30:23.899Z,25.96
2022-08-04T21:32:52.214Z,25.87
2022-08-04T21:35:19.017Z,25.99
2022-08-04T21:37:56.740Z,25.97
2022-08-04T21:40:36.787Z,25.87
2022-08-04T21:43:05.798Z,25.79
2022-08-04T21:45:36.196Z,25.69
2022-08-04T21:48:04.808Z,25.75
2022-08-04T21:50:31.579Z,25.76
2022-08-04T21:52:58.942Z,25.80
2022-08-04T21:56:04.961Z,25.99
2022-08-04T21:58:13.409Z,25.94
2022-08-04T22:00:40.670Z,25.82
2022-08-04T22:03:28.672Z,25.62
2022-08-04T22:05:55.997Z,25.79
2022-08-04T22:08:23.660Z,25.63
2022-08-04T22:10:57.801Z,25.62
2022-08-04T22:13:24.654Z,25.77
2022-08-04T22:16:11.400Z,25.89
2022-08-04T22:18:38.222Z,25.72
2022-08-04T22:21:09.596Z,25.73
2022-08-04T22:23:41.815Z,25.72
2022-08-04T22:26:14.306Z,25.66
2022-08-04T22:28:47.241Z,25.70
2022-08-04T22:31:24.254Z,25.55
2022-08-04T22:33:54.448Z,25.40
2022-08-04T22:36:24.906Z,25.19
2022-08-04T22:39:01.610Z,24.86
2022-08-04T22:41:48.556Z,24.18
2022-08-04T22:44:20.732Z,24.23
2022-08-04T22:46:47.541Z,24.52
2022-08-04T22:49:14.855Z,24.23
2022-08-04T22:51:41.539Z,23.86
2022-08-04T22:54:17.434Z,24.01
2022-08-04T22:56:45.461Z,24.13
2022-08-04T22:59:12.704Z,23.55
2022-08-04T23:02:00.086Z,23.71
2022-08-04T23:04:28.951Z,23.91
2022-08-04T23:06:55.611Z,24.33
2022-08-04T23:09:49.363Z,24.90
2022-08-04T23:12:24.574Z,24.64
2022-08-04T23:14:54.998Z,24.54
2022-08-04T23:17:22.314Z,24.75
2022-08-04T23:19:57.739Z,24.88
2022-08-04T23:22:37.458Z,25.06
2022-08-04T23:25:16.231Z,25.08
2022-08-04T23:27:50.677Z,24.99
2022-08-04T23:30:19.859Z,24.92
2022-08-04T23:32:48.751Z,24.95
2022-08-04T23:35:15.987Z,24.88
2022-08-04T23:37:57.437Z,24.56
2022-08-04T23:40:33.706Z,24.26
2022-08-04T23:43:16.972Z,24.00
2022-08-04T23:46:07.700Z,24.02
2022-08-04T23:48:36.788Z,23.85
2022-08-04T23:51:14.393Z,24.07
2022-08-04T23:54:02.225Z,23.99
2022-08-04T23:56:32.200Z,23.75
2022-08-04T23:59:00.077Z,23.77
